sensor_id;sensor_type;location;lat;lon;timestamp;pressure;altitude;pressure_sealevel;temperature;humidity
17438;BME280;73152;52.198;5.422;2024-03-08T00:01:46;101797.69;;;21.41;39.69
17438;BME280;73152;52.198;5.422;2024-03-08T00:04:15;101787.91;;;21.40;39.95
17438;BME280;73152;52.198;5.422;2024-03-08T00:06:44;101786.25;;;21.39;39.71
17438;BME280;73152;52.198;5.422;2024-03-08T00:09:14;101783.53;;;21.39;39.71
17438;BME280;73152;52.198;5.422;2024-03-08T00:11:47;101769.41;;;21.37;39.62
17438;BME280;73152;52.198;5.422;2024-03-08T00:14:18;101775.44;;;21.39;39.83
17438;BME280;73152;52.198;5.422;2024-03-08T00:16:47;101782.69;;;21.38;39.53
17438;BME280;73152;52.198;5.422;2024-03-08T00:19:18;101778.31;;;21.37;39.89
17438;BME280;73152;52.198;5.422;2024-03-08T00:21:47;101783.03;;;21.35;39.82
17438;BME280;73152;52.198;5.422;2024-03-08T00:24:16;101781.00;;;21.37;39.79
17438;BME280;73152;52.198;5.422;2024-03-08T00:26:52;101775.63;;;21.37;39.89
17438;BME280;73152;52.198;5.422;2024-03-08T00:29:21;101763.16;;;21.36;39.69
17438;BME280;73152;52.198;5.422;2024-03-08T00:31:50;101770.41;;;21.36;39.50
17438;BME280;73152;52.198;5.422;2024-03-08T00:34:19;101763.16;;;21.36;39.48
17438;BME280;73152;52.198;5.422;2024-03-08T00:36:48;101767.72;;;21.36;39.50
17438;BME280;73152;52.198;5.422;2024-03-08T00:39:17;101764.34;;;21.34;39.61
17438;BME280;73152;52.198;5.422;2024-03-08T00:41:47;101764.16;;;21.35;39.87
17438;BME280;73152;52.198;5.422;2024-03-08T00:44:18;101757.94;;;21.35;39.54
17438;BME280;73152;52.198;5.422;2024-03-08T00:46:47;101753.91;;;21.31;39.90
17438;BME280;73152;52.198;5.422;2024-03-08T00:49:16;101755.59;;;21.32;39.64
17438;BME280;73152;52.198;5.422;2024-03-08T00:51:45;101749.19;;;21.33;39.55
17438;BME280;73152;52.198;5.422;2024-03-08T00:54:14;101747.50;;;21.32;39.63
17438;BME280;73152;52.198;5.422;2024-03-08T00:56:43;101745.16;;;21.29;39.73
17438;BME280;73152;52.198;5.422;2024-03-08T00:59:12;101744.97;;;21.30;39.50
17438;BME280;73152;52.198;5.422;2024-03-08T01:01:44;101736.53;;;21.33;39.76
17438;BME280;73152;52.198;5.422;2024-03-08T01:04:13;101730.31;;;21.33;39.64
17438;BME280;73152;52.198;5.422;2024-03-08T01:06:42;101731.34;;;21.32;39.88
17438;BME280;73152;52.198;5.422;2024-03-08T01:09:13;101723.25;;;21.32;39.82
17438;BME280;73152;52.198;5.422;2024-03-08T01:11:43;101728.63;;;21.32;39.75
17438;BME280;73152;52.198;5.422;2024-03-08T01:14:12;101724.44;;;21.29;39.53
17438;BME280;73152;52.198;5.422;2024-03-08T01:16:40;101709.94;;;21.30;39.87
17438;BME280;73152;52.198;5.422;2024-03-08T01:19:12;101714.50;;;21.30;39.66
17438;BME280;73152;52.198;5.422;2024-03-08T01:21:41;101711.97;;;21.28;39.83
17438;BME280;73152;52.198;5.422;2024-03-08T01:24:10;101713.84;;;21.28;39.77
17438;BME280;73152;52.198;5.422;2024-03-08T01:26:39;101699.31;;;21.29;39.74
17438;BME280;73152;52.198;5.422;2024-03-08T01:29:08;101697.47;;;21.29;39.91
17438;BME280;73152;52.198;5.422;2024-03-08T01:31:37;101702.22;;;21.27;39.89
17438;BME280;73152;52.198;5.422;2024-03-08T01:34:05;101694.97;;;21.28;39.76
17438;BME280;73152;52.198;5.422;2024-03-08T01:36:37;101696.97;;;21.26;39.68
17438;BME280;73152;52.198;5.422;2024-03-08T01:39:06;101689.56;;;21.28;39.73
17438;BME280;73152;52.198;5.422;2024-03-08T01:41:35;101686.88;;;21.28;39.87
17438;BME280;73152;52.198;5.422;2024-03-08T01:44:04;101686.19;;;21.26;39.64
17438;BME280;73152;52.198;5.422;2024-03-08T01:46:34;101682.50;;;21.27;39.64
17438;BME280;73152;52.198;5.422;2024-03-08T01:49:04;101680.00;;;21.25;39.61
17438;BME280;73152;52.198;5.422;2024-03-08T01:51:36;101673.56;;;21.26;39.87
17438;BME280;73152;52.198;5.422;2024-03-08T01:54:07;101670.03;;;21.26;39.53
17438;BME280;73152;52.198;5.422;2024-03-08T01:56:39;101671.91;;;21.25;39.90
17438;BME280;73152;52.198;5.422;2024-03-08T01:59:09;101666.66;;;21.24;39.78
17438;BME280;73152;52.198;5.422;2024-03-08T02:01:38;101667.50;;;21.24;39.62
17438;BME280;73152;52.198;5.422;2024-03-08T02:04:07;101672.72;;;21.26;39.65
17438;BME280;73152;52.198;5.422;2024-03-08T02:06:39;101662.97;;;21.25;39.51
17438;BME280;73152;52.198;5.422;2024-03-08T02:09:08;101665.00;;;21.23;39.67
17438;BME280;73152;52.198;5.422;2024-03-08T02:11:37;101653.19;;;21.24;39.48
17438;BME280;73152;52.198;5.422;2024-03-08T02:14:06;101656.06;;;21.22;39.62
17438;BME280;73152;52.198;5.422;2024-03-08T02:16:37;101653.38;;;21.22;39.67
17438;BME280;73152;52.198;5.422;2024-03-08T02:19:06;101653.38;;;21.22;39.68
17438;BME280;73152;52.198;5.422;2024-03-08T02:21:38;101655.88;;;21.24;39.84
17438;BME280;73152;52.198;5.422;2024-03-08T02:24:07;101647.13;;;21.22;39.74
17438;BME280;73152;52.198;5.422;2024-03-08T02:26:36;101650.88;;;21.21;39.53
17438;BME280;73152;52.198;5.422;2024-03-08T02:29:05;101643.78;;;21.20;39.61
17438;BME280;73152;52.198;5.422;2024-03-08T02:31:34;101639.25;;;21.20;39.61
17438;BME280;73152;52.198;5.422;2024-03-08T02:34:05;101632.16;;;21.19;39.83
17438;BME280;73152;52.198;5.422;2024-03-08T02:36:38;101630.97;;;21.22;39.59
17438;BME280;73152;52.198;5.422;2024-03-08T02:39:07;101628.44;;;21.20;39.64
17438;BME280;73152;52.198;5.422;2024-03-08T02:41:36;101630.31;;;21.20;39.69
17438;BME280;73152;52.198;5.422;2024-03-08T02:44:08;101632.16;;;21.19;39.64
17438;BME280;73152;52.198;5.422;2024-03-08T02:46:38;101626.75;;;21.19;39.49
17438;BME280;73152;52.198;5.422;2024-03-08T02:49:06;101617.84;;;21.19;39.74
17438;BME280;73152;52.198;5.422;2024-03-08T02:51:40;101614.31;;;21.18;39.56
17438;BME280;73152;52.198;5.422;2024-03-08T02:54:08;101607.25;;;21.17;39.64
17438;BME280;73152;52.198;5.422;2024-03-08T02:56:37;101609.75;;;21.19;39.42
17438;BME280;73152;52.198;5.422;2024-03-08T02:59:07;101602.69;;;21.18;39.43
17438;BME280;73152;52.198;5.422;2024-03-08T03:01:36;101606.41;;;21.17;39.55
17438;BME280;73152;52.198;5.422;2024-03-08T03:04:05;101599.34;;;21.16;39.69
17438;BME280;73152;52.198;5.422;2024-03-08T03:06:34;101596.47;;;21.17;39.56
17438;BME280;73152;52.198;5.422;2024-03-08T03:09:06;101595.59;;;21.17;39.60
17438;BME280;73152;52.198;5.422;2024-03-08T03:11:36;101593.94;;;21.16;39.73
17438;BME280;73152;52.198;5.422;2024-03-08T03:14:05;101584.81;;;21.17;39.48
17438;BME280;73152;52.198;5.422;2024-03-08T03:16:35;101586.88;;;21.15;39.57
17438;BME280;73152;52.198;5.422;2024-03-08T03:19:03;101579.81;;;21.14;39.79
17438;BME280;73152;52.198;5.422;2024-03-08T03:21:33;101576.94;;;21.15;39.38
17438;BME280;73152;52.198;5.422;2024-03-08T03:24:07;101578.78;;;21.15;39.49
17438;BME280;73152;52.198;5.422;2024-03-08T03:26:37;101576.09;;;21.15;39.67
17438;BME280;73152;52.198;5.422;2024-03-08T03:29:08;101571.03;;;21.12;39.54
17438;BME280;73152;52.198;5.422;2024-03-08T03:31:37;101569.38;;;21.11;39.62
17438;BME280;73152;52.198;5.422;2024-03-08T03:34:06;101571.03;;;21.12;39.58
17438;BME280;73152;52.198;5.422;2024-03-08T03:36:35;101571.72;;;21.14;39.29
17438;BME280;73152;52.198;5.422;2024-03-08T03:39:10;101560.09;;;21.13;39.49
17438;BME280;73152;52.198;5.422;2024-03-08T03:41:42;101561.09;;;21.12;39.39
17438;BME280;73152;52.198;5.422;2024-03-08T03:44:12;101564.66;;;21.13;39.35
17438;BME280;73152;52.198;5.422;2024-03-08T03:46:42;101567.53;;;21.11;39.48
17438;BME280;73152;52.198;5.422;2024-03-08T03:49:12;101560.25;;;21.12;39.51
17438;BME280;73152;52.198;5.422;2024-03-08T03:51:41;101561.31;;;21.11;39.54
17438;BME280;73152;52.198;5.422;2024-03-08T03:54:13;101563.16;;;21.10;39.67
17438;BME280;73152;52.198;5.422;2024-03-08T03:56:42;101556.09;;;21.09;39.27
17438;BME280;73152;52.198;5.422;2024-03-08T03:59:11;101552.38;;;21.10;39.54
17438;BME280;73152;52.198;5.422;2024-03-08T04:01:42;101551.53;;;21.10;39.58
17438;BME280;73152;52.198;5.422;2024-03-08T04:04:11;101547.16;;;21.09;39.58
17438;BME280;73152;52.198;5.422;2024-03-08T04:06:40;101545.13;;;21.11;39.29
17438;BME280;73152;52.198;5.422;2024-03-08T04:09:12;101547.81;;;21.11;39.54
17438;BME280;73152;52.198;5.422;2024-03-08T04:11:41;101550.72;;;21.09;39.25
17438;BME280;73152;52.198;5.422;2024-03-08T04:14:13;101545.31;;;21.09;39.61
17438;BME280;73152;52.198;5.422;2024-03-08T04:16:42;101540.09;;;21.08;39.48
17438;BME280;73152;52.198;5.422;2024-03-08T04:19:12;101542.78;;;21.08;39.58
17438;BME280;73152;52.198;5.422;2024-03-08T04:21:41;101537.41;;;21.08;39.51
17438;BME280;73152;52.198;5.422;2024-03-08T04:24:12;101541.13;;;21.07;39.21
17438;BME280;73152;52.198;5.422;2024-03-08T04:26:43;101539.94;;;21.09;39.56
17438;BME280;73152;52.198;5.422;2024-03-08T04:29:12;101533.03;;;21.07;39.45
17438;BME280;73152;52.198;5.422;2024-03-08T04:31:40;101527.81;;;21.05;39.56
17438;BME280;73152;52.198;5.422;2024-03-08T04:34:10;101532.00;;;21.08;39.18
17438;BME280;73152;52.198;5.422;2024-03-08T04:36:39;101527.66;;;21.07;39.48
17438;BME280;73152;52.198;5.422;2024-03-08T04:39:08;101538.75;;;21.04;39.48
17438;BME280;73152;52.198;5.422;2024-03-08T04:41:41;101543.16;;;21.05;39.50
17438;BME280;73152;52.198;5.422;2024-03-08T04:44:15;101528.84;;;21.04;39.20
17438;BME280;73152;52.198;5.422;2024-03-08T04:46:44;101523.25;;;21.06;39.24
17438;BME280;73152;52.198;5.422;2024-03-08T04:49:12;101524.31;;;21.05;39.29
17438;BME280;73152;52.198;5.422;2024-03-08T04:51:41;101519.03;;;21.03;39.33
17438;BME280;73152;52.198;5.422;2024-03-08T04:54:10;101521.59;;;21.05;39.16
17438;BME280;73152;52.198;5.422;2024-03-08T04:56:42;101514.50;;;21.04;39.48
17438;BME280;73152;52.198;5.422;2024-03-08T04:59:11;101518.19;;;21.03;39.46
17438;BME280;73152;52.198;5.422;2024-03-08T05:01:43;101514.50;;;21.04;39.49
17438;BME280;73152;52.198;5.422;2024-03-08T05:04:13;101514.50;;;21.04;39.13
17438;BME280;73152;52.198;5.422;2024-03-08T05:06:42;101510.81;;;21.05;39.44
17438;BME280;73152;52.198;5.422;2024-03-08T05:09:11;101509.47;;;21.01;39.56
17438;BME280;73152;52.198;5.422;2024-03-08T05:11:45;101508.13;;;21.05;39.51
17438;BME280;73152;52.198;5.422;2024-03-08T05:14:16;101511.50;;;20.99;39.14
17438;BME280;73152;52.198;5.422;2024-03-08T05:16:46;101507.59;;;21.01;39.11
17438;BME280;73152;52.198;5.422;2024-03-08T05:19:16;101505.47;;;20.97;39.20
17438;BME280;73152;52.198;5.422;2024-03-08T05:21:46;101500.38;;;21.02;39.21
17438;BME280;73152;52.198;5.422;2024-03-08T05:24:16;101510.31;;;21.01;39.33
17438;BME280;73152;52.198;5.422;2024-03-08T05:26:47;101511.16;;;21.02;39.50
17438;BME280;73152;52.198;5.422;2024-03-08T05:29:16;101507.78;;;21.00;39.55
17438;BME280;73152;52.198;5.422;2024-03-08T05:31:48;101495.31;;;20.99;39.42
17438;BME280;73152;52.198;5.422;2024-03-08T05:34:18;101504.72;;;21.03;39.37
17438;BME280;73152;52.198;5.422;2024-03-08T05:36:48;101507.78;;;21.00;39.49
17438;BME280;73152;52.198;5.422;2024-03-08T05:39:20;101501.38;;;21.01;39.61
17438;BME280;73152;52.198;5.422;2024-03-08T05:41:52;101497.03;;;21.00;39.49
17438;BME280;73152;52.198;5.422;2024-03-08T05:44:21;101503.22;;;21.00;39.57
17438;BME280;73152;52.198;5.422;2024-03-08T05:46:50;101496.19;;;20.99;39.36
17438;BME280;73152;52.198;5.422;2024-03-08T05:49:22;101493.47;;;20.99;39.59
17438;BME280;73152;52.198;5.422;2024-03-08T05:51:50;101495.13;;;21.00;39.58
17438;BME280;73152;52.198;5.422;2024-03-08T05:54:20;101487.59;;;20.96;39.37
17438;BME280;73152;52.198;5.422;2024-03-08T05:56:53;101481.84;;;20.99;39.28
17438;BME280;73152;52.198;5.422;2024-03-08T05:59:22;101488.28;;;20.98;39.19
17438;BME280;73152;52.198;5.422;2024-03-08T06:01:51;101493.66;;;20.98;39.14
17438;BME280;73152;52.198;5.422;2024-03-08T06:04:20;101494.69;;;20.97;39.18
17438;BME280;73152;52.198;5.422;2024-03-08T06:06:49;101482.06;;;20.97;39.21
17438;BME280;73152;52.198;5.422;2024-03-08T06:09:21;101479.50;;;20.96;39.43
17438;BME280;73152;52.198;5.422;2024-03-08T06:11:54;101474.31;;;20.94;39.08
17438;BME280;73152;52.198;5.422;2024-03-08T06:14:23;101477.50;;;20.98;39.09
17438;BME280;73152;52.198;5.422;2024-03-08T06:16:52;101475.81;;;20.97;39.15
17438;BME280;73152;52.198;5.422;2024-03-08T06:19:20;101468.28;;;20.92;39.36
17438;BME280;73152;52.198;5.422;2024-03-08T06:21:49;101476.56;;;20.91;39.08
17438;BME280;73152;52.198;5.422;2024-03-08T06:24:18;101469.59;;;20.96;39.15
17438;BME280;73152;52.198;5.422;2024-03-08T06:26:47;101480.56;;;20.95;39.00
17438;BME280;73152;52.198;5.422;2024-03-08T06:29:19;101467.25;;;20.93;39.12
17438;BME280;73152;52.198;5.422;2024-03-08T06:31:47;101468.72;;;20.96;38.86
17438;BME280;73152;52.198;5.422;2024-03-08T06:34:16;101474.13;;;20.96;39.10
17438;BME280;73152;52.198;5.422;2024-03-08T06:36:45;101474.13;;;20.96;38.89
17438;BME280;73152;52.198;5.422;2024-03-08T06:39:14;101469.59;;;20.96;39.05
17438;BME280;73152;52.198;5.422;2024-03-08T06:41:43;101460.50;;;20.97;38.78
17438;BME280;73152;52.198;5.422;2024-03-08T06:44:12;101467.06;;;20.95;38.96
17438;BME280;73152;52.198;5.422;2024-03-08T06:46:45;101460.84;;;20.94;38.88
17438;BME280;73152;52.198;5.422;2024-03-08T06:49:14;101467.94;;;20.95;38.72
17438;BME280;73152;52.198;5.422;2024-03-08T06:51:42;101457.94;;;20.96;38.75
17438;BME280;73152;52.198;5.422;2024-03-08T06:54:11;101457.78;;;20.97;38.51
17438;BME280;73152;52.198;5.422;2024-03-08T06:56:40;101461.34;;;20.98;38.88
17438;BME280;73152;52.198;5.422;2024-03-08T06:59:09;101465.03;;;20.97;38.84
17438;BME280;73152;52.198;5.422;2024-03-08T07:01:38;101456.75;;;20.98;38.44
17438;BME280;73152;52.198;5.422;2024-03-08T07:04:07;101453.25;;;20.98;38.73
17438;BME280;73152;52.198;5.422;2024-03-08T07:06:37;101452.03;;;21.00;38.58
17438;BME280;73152;52.198;5.422;2024-03-08T07:09:06;101449.22;;;20.94;38.52
17438;BME280;73152;52.198;5.422;2024-03-08T07:11:35;101453.91;;;21.00;38.76
17438;BME280;73152;52.198;5.422;2024-03-08T07:14:08;101448.50;;;21.00;38.44
17438;BME280;73152;52.198;5.422;2024-03-08T07:16:37;101453.91;;;21.00;38.32
17438;BME280;73152;52.198;5.422;2024-03-08T07:19:08;101447.19;;;20.96;38.66
17438;BME280;73152;52.198;5.422;2024-03-08T07:21:38;101449.16;;;21.02;38.65
17438;BME280;73152;52.198;5.422;2024-03-08T07:24:07;101442.94;;;21.01;38.60
17438;BME280;73152;52.198;5.422;2024-03-08T07:26:53;101457.25;;;21.02;38.57
17438;BME280;73152;52.198;5.422;2024-03-08T07:29:22;101446.47;;;21.02;38.31
17438;BME280;73152;52.198;5.422;2024-03-08T07:31:51;101445.31;;;21.04;38.35
17438;BME280;73152;52.198;5.422;2024-03-08T07:34:30;101437.22;;;21.04;38.57
17438;BME280;73152;52.198;5.422;2024-03-08T07:36:59;101442.09;;;21.01;38.36
17438;BME280;73152;52.198;5.422;2024-03-08T07:39:29;101433.00;;;21.02;38.27
17438;BME280;73152;52.198;5.422;2024-03-08T07:41:58;101432.66;;;21.05;38.44
17438;BME280;73152;52.198;5.422;2024-03-08T07:44:27;101429.13;;;21.04;38.28
17438;BME280;73152;52.198;5.422;2024-03-08T07:46:57;101429.97;;;21.05;38.63
17438;BME280;73152;52.198;5.422;2024-03-08T07:49:26;101429.97;;;21.05;38.59
17438;BME280;73152;52.198;5.422;2024-03-08T07:51:58;101427.94;;;21.07;38.53
17438;BME280;73152;52.198;5.422;2024-03-08T07:54:27;101423.53;;;21.06;38.38
17438;BME280;73152;52.198;5.422;2024-03-08T07:56:56;101418.81;;;21.08;38.32
17438;BME280;73152;52.198;5.422;2024-03-08T07:59:25;101423.34;;;21.07;38.59
17438;BME280;73152;52.198;5.422;2024-03-08T08:01:56;101419.84;;;21.07;38.55
17438;BME280;73152;52.198;5.422;2024-03-08T08:04:25;101416.13;;;21.08;38.45
17438;BME280;73152;52.198;5.422;2024-03-08T08:06:56;101408.41;;;21.05;38.56
17438;BME280;73152;52.198;5.422;2024-03-08T08:09:26;101400.47;;;21.03;38.41
17438;BME280;73152;52.198;5.422;2024-03-08T08:12:00;101407.03;;;21.09;38.30
17438;BME280;73152;52.198;5.422;2024-03-08T08:14:30;101405.34;;;21.08;38.32
17438;BME280;73152;52.198;5.422;2024-03-08T08:16:59;101403.69;;;21.07;38.35
17438;BME280;73152;52.198;5.422;2024-03-08T08:19:30;101399.28;;;21.06;38.09
17438;BME280;73152;52.198;5.422;2024-03-08T08:22:04;101396.41;;;21.07;38.22
17438;BME280;73152;52.198;5.422;2024-03-08T08:24:34;101391.22;;;21.06;38.39
17438;BME280;73152;52.198;5.422;2024-03-08T08:27:04;101394.75;;;21.06;37.97
17438;BME280;73152;52.198;5.422;2024-03-08T08:29:34;101395.59;;;21.07;38.17
17438;BME280;73152;52.198;5.422;2024-03-08T08:32:04;101390.19;;;21.07;38.25
17438;BME280;73152;52.198;5.422;2024-03-08T08:34:33;101378.38;;;21.08;38.24
17438;BME280;73152;52.198;5.422;2024-03-08T08:37:04;101382.94;;;21.07;37.83
17438;BME280;73152;52.198;5.422;2024-03-08T08:39:35;101379.75;;;21.04;37.75
17438;BME280;73152;52.198;5.422;2024-03-08T08:42:05;101375.69;;;21.08;38.19
17438;BME280;73152;52.198;5.422;2024-03-08T08:44:35;101377.38;;;21.09;38.07
17438;BME280;73152;52.198;5.422;2024-03-08T08:47:04;101369.44;;;21.07;37.95
17438;BME280;73152;52.198;5.422;2024-03-08T08:49:33;101364.53;;;21.11;38.14
17438;BME280;73152;52.198;5.422;2024-03-08T08:52:04;101370.94;;;21.10;38.24
17438;BME280;73152;52.198;5.422;2024-03-08T08:54:34;101368.25;;;21.10;38.13
17438;BME280;73152;52.198;5.422;2024-03-08T08:57:04;101361.19;;;21.09;38.33
17438;BME280;73152;52.198;5.422;2024-03-08T08:59:33;101363.69;;;21.10;38.31
17438;BME280;73152;52.198;5.422;2024-03-08T09:02:02;101358.97;;;21.12;38.22
17438;BME280;73152;52.198;5.422;2024-03-08T09:04:32;101358.13;;;21.12;38.39
17438;BME280;73152;52.198;5.422;2024-03-08T09:07:04;101355.25;;;21.13;38.23
17438;BME280;73152;52.198;5.422;2024-03-08T09:09:34;101356.25;;;21.12;38.40
17438;BME280;73152;52.198;5.422;2024-03-08T09:12:07;101349.03;;;21.13;38.27
17438;BME280;73152;52.198;5.422;2024-03-08T09:14:39;101340.94;;;21.13;38.50
17438;BME280;73152;52.198;5.422;2024-03-08T09:17:08;101342.63;;;21.14;38.21
17438;BME280;73152;52.198;5.422;2024-03-08T09:19:37;101338.25;;;21.13;38.57
17438;BME280;73152;52.198;5.422;2024-03-08T09:22:09;101331.84;;;21.14;38.47
17438;BME280;73152;52.198;5.422;2024-03-08T09:24:38;101332.84;;;21.13;38.27
17438;BME280;73152;52.198;5.422;2024-03-08T09:27:09;101330.50;;;21.10;38.41
17438;BME280;73152;52.198;5.422;2024-03-08T09:29:38;101323.81;;;21.06;38.46
17438;BME280;73152;52.198;5.422;2024-03-08T09:32:07;101323.81;;;21.06;38.51
17438;BME280;73152;52.198;5.422;2024-03-08T09:34:37;101313.91;;;21.06;38.59
17438;BME280;73152;52.198;5.422;2024-03-08T09:37:09;101313.91;;;21.06;38.58
17438;BME280;73152;52.198;5.422;2024-03-08T09:39:38;101304.78;;;21.07;38.85
17438;BME280;73152;52.198;5.422;2024-03-08T09:42:07;101296.19;;;21.04;38.95
17438;BME280;73152;52.198;5.422;2024-03-08T09:44:37;101302.75;;;21.09;39.02
17438;BME280;73152;52.198;5.422;2024-03-08T09:47:06;101305.44;;;21.09;38.60
17438;BME280;73152;52.198;5.422;2024-03-08T09:49:35;101291.13;;;21.09;38.66
17438;BME280;73152;52.198;5.422;2024-03-08T09:52:05;101286.59;;;21.09;38.78
17438;BME280;73152;52.198;5.422;2024-03-08T09:54:37;101289.06;;;21.11;38.77
17438;BME280;73152;52.198;5.422;2024-03-08T09:57:06;101276.59;;;21.10;38.71
17438;BME280;73152;52.198;5.422;2024-03-08T09:59:38;101278.09;;;21.12;38.60
17438;BME280;73152;52.198;5.422;2024-03-08T10:02:17;101269.00;;;21.13;38.47
17438;BME280;73152;52.198;5.422;2024-03-08T10:04:47;101266.31;;;21.13;38.61
17438;BME280;73152;52.198;5.422;2024-03-08T10:07:15;101274.19;;;21.15;38.49
17438;BME280;73152;52.198;5.422;2024-03-08T10:09:47;101266.75;;;21.17;38.71
17438;BME280;73152;52.198;5.422;2024-03-08T10:12:16;101260.06;;;21.13;38.73
17438;BME280;73152;52.198;5.422;2024-03-08T10:14:48;101263.41;;;21.15;38.37
17438;BME280;73152;52.198;5.422;2024-03-08T10:17:20;101250.97;;;21.14;38.61
17438;BME280;73152;52.198;5.422;2024-03-08T10:19:51;101246.41;;;21.14;38.42
17438;BME280;73152;52.198;5.422;2024-03-08T10:22:20;101247.06;;;21.16;38.50
17438;BME280;73152;52.198;5.422;2024-03-08T10:24:52;101239.81;;;21.17;38.28
17438;BME280;73152;52.198;5.422;2024-03-08T10:27:20;101239.44;;;21.20;38.47
17438;BME280;73152;52.198;5.422;2024-03-08T10:29:51;101237.00;;;21.25;38.47
17438;BME280;73152;52.198;5.422;2024-03-08T10:32:20;101228.56;;;21.28;38.13
17438;BME280;73152;52.198;5.422;2024-03-08T10:34:50;101212.38;;;21.28;38.26
17438;BME280;73152;52.198;5.422;2024-03-08T10:37:22;101206.78;;;21.29;38.17
17438;BME280;73152;52.198;5.422;2024-03-08T10:40:04;101206.59;;;21.31;38.06
17438;BME280;73152;52.198;5.422;2024-03-08T10:42:43;101201.19;;;21.31;38.34
17438;BME280;73152;52.198;5.422;2024-03-08T10:45:29;101197.28;;;21.33;38.30
17438;BME280;73152;52.198;5.422;2024-03-08T10:48:26;101189.00;;;21.35;38.23
17438;BME280;73152;52.198;5.422;2024-03-08T10:50:57;101186.28;;;21.35;38.09
17438;BME280;73152;52.198;5.422;2024-03-08T10:53:28;101179.91;;;21.36;37.97
17438;BME280;73152;52.198;5.422;2024-03-08T10:56:00;101168.28;;;21.35;38.27
17438;BME280;73152;52.198;5.422;2024-03-08T10:58:30;101170.78;;;21.37;38.12
17438;BME280;73152;52.198;5.422;2024-03-08T11:01:00;101168.09;;;21.37;37.81
17438;BME280;73152;52.198;5.422;2024-03-08T11:03:45;101161.66;;;21.38;37.80
17438;BME280;73152;52.198;5.422;2024-03-08T11:06:17;101164.34;;;21.38;38.00
17438;BME280;73152;52.198;5.422;2024-03-08T11:08:49;101150.88;;;21.38;38.00
17438;BME280;73152;52.198;5.422;2024-03-08T11:11:31;101158.97;;;21.38;37.81
17438;BME280;73152;52.198;5.422;2024-03-08T11:14:01;101144.47;;;21.39;38.00
17438;BME280;73152;52.198;5.422;2024-03-08T11:16:39;101145.47;;;21.38;37.82
17438;BME280;73152;52.198;5.422;2024-03-08T11:19:26;101126.59;;;21.38;37.87
17438;BME280;73152;52.198;5.422;2024-03-08T11:22:00;101126.59;;;21.38;37.96
17438;BME280;73152;52.198;5.422;2024-03-08T11:24:38;101125.59;;;21.39;37.66
17438;BME280;73152;52.198;5.422;2024-03-08T11:27:11;101117.50;;;21.39;37.76
17438;BME280;73152;52.198;5.422;2024-03-08T11:29:41;101116.47;;;21.40;37.51
17438;BME280;73152;52.198;5.422;2024-03-08T11:32:12;101111.06;;;21.40;37.78
17438;BME280;73152;52.198;5.422;2024-03-08T11:34:46;101099.28;;;21.41;37.42
17438;BME280;73152;52.198;5.422;2024-03-08T11:37:18;101100.91;;;21.42;37.77
17438;BME280;73152;52.198;5.422;2024-03-08T11:39:48;101090.34;;;21.40;37.34
17438;BME280;73152;52.198;5.422;2024-03-08T11:42:20;101095.53;;;21.42;37.67
17438;BME280;73152;52.198;5.422;2024-03-08T11:44:51;101082.03;;;21.42;37.41
17438;BME280;73152;52.198;5.422;2024-03-08T11:47:22;101065.88;;;21.42;37.24
17438;BME280;73152;52.198;5.422;2024-03-08T11:49:52;101070.25;;;21.43;37.38
17438;BME280;73152;52.198;5.422;2024-03-08T11:52:21;101058.63;;;21.42;37.33
17438;BME280;73152;52.198;5.422;2024-03-08T11:54:53;101030.94;;;21.27;37.22
17438;BME280;73152;52.198;5.422;2024-03-08T11:57:27;101053.22;;;21.42;37.53
17438;BME280;73152;52.198;5.422;2024-03-08T11:59:58;101040.97;;;21.40;37.21
17438;BME280;73152;52.198;5.422;2024-03-08T12:02:33;101041.44;;;21.43;37.13
17438;BME280;73152;52.198;5.422;2024-03-08T12:05:05;101039.75;;;21.42;37.46
17438;BME280;73152;52.198;5.422;2024-03-08T12:07:36;101038.53;;;21.45;37.45
17438;BME280;73152;52.198;5.422;2024-03-08T12:10:19;101035.66;;;21.47;37.07
17438;BME280;73152;52.198;5.422;2024-03-08T12:12:53;101029.59;;;21.44;37.45
17438;BME280;73152;52.198;5.422;2024-03-08T12:15:24;101030.44;;;21.45;37.42
17438;BME280;73152;52.198;5.422;2024-03-08T12:17:54;101022.34;;;21.45;37.95
17438;BME280;73152;52.198;5.422;2024-03-08T12:20:26;100993.63;;;21.31;37.87
17438;BME280;73152;52.198;5.422;2024-03-08T12:22:56;101013.25;;;21.46;38.16
17438;BME280;73152;52.198;5.422;2024-03-08T12:25:27;101015.94;;;21.46;38.45
17438;BME280;73152;52.198;5.422;2024-03-08T12:28:11;101010.34;;;21.48;38.74
17438;BME280;73152;52.198;5.422;2024-03-08T12:30:47;100994.38;;;21.46;38.69
17438;BME280;73152;52.198;5.422;2024-03-08T12:33:16;100995.84;;;21.49;38.80
17438;BME280;73152;52.198;5.422;2024-03-08T12:35:51;100998.53;;;21.49;39.05
17438;BME280;73152;52.198;5.422;2024-03-08T12:38:27;100992.09;;;21.50;38.77
17438;BME280;73152;52.198;5.422;2024-03-08T12:40:59;100993.78;;;21.51;39.07
17438;BME280;73152;52.198;5.422;2024-03-08T12:43:30;100993.38;;;21.54;39.05
17438;BME280;73152;52.198;5.422;2024-03-08T12:46:00;100969.94;;;21.54;38.73
17438;BME280;73152;52.198;5.422;2024-03-08T12:48:34;100965.59;;;21.53;39.08
17438;BME280;73152;52.198;5.422;2024-03-08T12:51:06;100973.25;;;21.56;38.46
17438;BME280;73152;52.198;5.422;2024-03-08T12:53:36;100972.63;;;21.54;38.06
17438;BME280;73152;52.198;5.422;2024-03-08T12:56:06;100962.25;;;21.51;37.32
17438;BME280;73152;52.198;5.422;2024-03-08T12:58:41;100958.75;;;21.57;37.77
17438;BME280;73152;52.198;5.422;2024-03-08T13:01:10;100958.38;;;21.60;38.11
17438;BME280;73152;52.198;5.422;2024-03-08T13:03:39;100942.81;;;21.62;38.12
17438;BME280;73152;52.198;5.422;2024-03-08T13:06:09;100943.84;;;21.61;37.61
17438;BME280;73152;52.198;5.422;2024-03-08T13:08:39;100949.44;;;21.60;37.11